sensor_id;sensor_type;location;lat;lon;timestamp;P1;durP1;ratioP1;P2;durP2;ratioP2
16870;SDS011;8552;48.120;-1.456;2023-05-02T00:00:38;6.10;;;2.67;;
16870;SDS011;8552;48.120;-1.456;2023-05-02T00:03:04;3.85;;;2.28;;
16870;SDS011;8552;48.120;-1.456;2023-05-02T00:05:30;7.03;;;2.72;;
16870;SDS011;8552;48.120;-1.456;2023-05-02T00:07:56;4.53;;;2.92;;
16870;SDS011;8552;48.120;-1.456;2023-05-02T00:10:21;5.05;;;2.25;;
16870;SDS011;8552;48.120;-1.456;2023-05-02T00:12:47;5.32;;;2.47;;
16870;SDS011;8552;48.120;-1.456;2023-05-02T00:15:13;6.40;;;2.45;;
16870;SDS011;8552;48.120;-1.456;2023-05-02T00:17:39;5.63;;;3.03;;
16870;SDS011;8552;48.120;-1.456;2023-05-02T00:20:08;5.07;;;3.50;;
16870;SDS011;8552;48.120;-1.456;2023-05-02T00:22:35;7.07;;;3.72;;
16870;SDS011;8552;48.120;-1.456;2023-05-02T00:25:01;7.80;;;4.03;;
16870;SDS011;8552;48.120;-1.456;2023-05-02T00:27:28;8.70;;;3.50;;
16870;SDS011;8552;48.120;-1.456;2023-05-02T00:29:54;9.25;;;4.28;;
16870;SDS011;8552;48.120;-1.456;2023-05-02T00:32:20;11.63;;;4.75;;
16870;SDS011;8552;48.120;-1.456;2023-05-02T00:34:46;10.30;;;4.53;;
16870;SDS011;8552;48.120;-1.456;2023-05-02T00:37:12;8.25;;;4.20;;
16870;SDS011;8552;48.120;-1.456;2023-05-02T00:39:37;15.40;;;5.50;;
16870;SDS011;8552;48.120;-1.456;2023-05-02T00:42:03;15.35;;;5.88;;
16870;SDS011;8552;48.120;-1.456;2023-05-02T00:44:29;10.05;;;5.53;;
16870;SDS011;8552;48.120;-1.456;2023-05-02T00:46:55;14.70;;;6.22;;
16870;SDS011;8552;48.120;-1.456;2023-05-02T00:49:21;14.80;;;6.53;;
16870;SDS011;8552;48.120;-1.456;2023-05-02T00:51:47;14.68;;;6.32;;
16870;SDS011;8552;48.120;-1.456;2023-05-02T00:54:13;21.17;;;6.90;;
16870;SDS011;8552;48.120;-1.456;2023-05-02T00:56:39;18.25;;;7.57;;
16870;SDS011;8552;48.120;-1.456;2023-05-02T00:59:05;18.38;;;6.07;;
16870;SDS011;8552;48.120;-1.456;2023-05-02T01:01:39;20.13;;;6.97;;
16870;SDS011;8552;48.120;-1.456;2023-05-02T01:04:21;20.60;;;8.00;;
16870;SDS011;8552;48.120;-1.456;2023-05-02T01:07:26;26.05;;;8.63;;
16870;SDS011;8552;48.120;-1.456;2023-05-02T01:10:27;29.60;;;8.60;;
16870;SDS011;8552;48.120;-1.456;2023-05-02T01:15:47;17.67;;;7.93;;
16870;SDS011;8552;48.120;-1.456;2023-05-02T01:18:15;24.88;;;8.90;;
16870;SDS011;8552;48.120;-1.456;2023-05-02T01:20:45;20.40;;;9.15;;
16870;SDS011;8552;48.120;-1.456;2023-05-02T01:29:06;22.35;;;9.68;;
16870;SDS011;8552;48.120;-1.456;2023-05-02T01:31:40;23.90;;;8.68;;
16870;SDS011;8552;48.120;-1.456;2023-05-02T01:34:09;18.92;;;8.13;;
16870;SDS011;8552;48.120;-1.456;2023-05-02T01:36:35;24.20;;;8.15;;
16870;SDS011;8552;48.120;-1.456;2023-05-02T01:39:06;16.88;;;7.97;;
16870;SDS011;8552;48.120;-1.456;2023-05-02T01:41:35;14.93;;;7.35;;
16870;SDS011;8552;48.120;-1.456;2023-05-02T01:44:02;19.17;;;7.55;;
16870;SDS011;8552;48.120;-1.456;2023-05-02T01:46:33;17.15;;;7.45;;
16870;SDS011;8552;48.120;-1.456;2023-05-02T01:49:02;16.02;;;6.50;;
16870;SDS011;8552;48.120;-1.456;2023-05-02T01:51:30;15.05;;;6.10;;
16870;SDS011;8552;48.120;-1.456;2023-05-02T01:53:59;13.35;;;5.57;;
16870;SDS011;8552;48.120;-1.456;2023-05-02T01:56:28;11.05;;;5.88;;
16870;SDS011;8552;48.120;-1.456;2023-05-02T01:58:56;16.52;;;6.63;;
16870;SDS011;8552;48.120;-1.456;2023-05-02T02:01:23;13.75;;;7.57;;
16870;SDS011;8552;48.120;-1.456;2023-05-02T02:03:53;12.18;;;6.47;;
16870;SDS011;8552;48.120;-1.456;2023-05-02T02:06:20;19.02;;;6.25;;
16870;SDS011;8552;48.120;-1.456;2023-05-02T02:08:46;17.65;;;7.35;;
16870;SDS011;8552;48.120;-1.456;2023-05-02T02:11:12;12.43;;;6.20;;
16870;SDS011;8552;48.120;-1.456;2023-05-02T02:13:48;14.43;;;6.60;;
16870;SDS011;8552;48.120;-1.456;2023-05-02T02:16:21;15.45;;;6.50;;
16870;SDS011;8552;48.120;-1.456;2023-05-02T02:18:53;14.13;;;6.47;;
16870;SDS011;8552;48.120;-1.456;2023-05-02T02:21:20;10.63;;;6.65;;
16870;SDS011;8552;48.120;-1.456;2023-05-02T02:23:50;15.40;;;7.53;;
16870;SDS011;8552;48.120;-1.456;2023-05-02T02:26:19;13.52;;;7.10;;
16870;SDS011;8552;48.120;-1.456;2023-05-02T02:28:46;10.70;;;6.18;;
16870;SDS011;8552;48.120;-1.456;2023-05-02T02:31:12;10.98;;;6.05;;
16870;SDS011;8552;48.120;-1.456;2023-05-02T02:33:38;12.20;;;6.40;;
16870;SDS011;8552;48.120;-1.456;2023-05-02T02:36:11;14.02;;;6.40;;
16870;SDS011;8552;48.120;-1.456;2023-05-02T02:39:33;10.27;;;5.47;;
16870;SDS011;8552;48.120;-1.456;2023-05-02T02:41:39;12.05;;;5.47;;
16870;SDS011;8552;48.120;-1.456;2023-05-02T02:47:11;16.95;;;6.05;;
16870;SDS011;8552;48.120;-1.456;2023-05-02T02:49:56;12.65;;;6.03;;
16870;SDS011;8552;48.120;-1.456;2023-05-02T02:53:02;13.63;;;6.32;;
16870;SDS011;8552;48.120;-1.456;2023-05-02T02:55:25;9.00;;;5.57;;
16870;SDS011;8552;48.120;-1.456;2023-05-02T02:58:19;11.70;;;5.18;;
16870;SDS011;8552;48.120;-1.456;2023-05-02T03:00:46;10.23;;;5.53;;
16870;SDS011;8552;48.120;-1.456;2023-05-02T03:03:13;13.88;;;5.63;;
16870;SDS011;8552;48.120;-1.456;2023-05-02T03:05:41;10.75;;;5.10;;
16870;SDS011;8552;48.120;-1.456;2023-05-02T03:08:08;10.35;;;5.10;;
16870;SDS011;8552;48.120;-1.456;2023-05-02T03:10:33;9.85;;;5.30;;
16870;SDS011;8552;48.120;-1.456;2023-05-02T03:12:59;10.32;;;5.55;;
16870;SDS011;8552;48.120;-1.456;2023-05-02T03:18:26;13.10;;;5.82;;
16870;SDS011;8552;48.120;-1.456;2023-05-02T03:20:51;12.73;;;5.93;;
16870;SDS011;8552;48.120;-1.456;2023-05-02T03:23:17;10.02;;;5.32;;
16870;SDS011;8552;48.120;-1.456;2023-05-02T03:25:42;14.23;;;6.78;;
16870;SDS011;8552;48.120;-1.456;2023-05-02T03:28:08;11.48;;;6.47;;
16870;SDS011;8552;48.120;-1.456;2023-05-02T03:30:35;13.38;;;6.57;;
16870;SDS011;8552;48.120;-1.456;2023-05-02T03:33:04;10.32;;;6.10;;
16870;SDS011;8552;48.120;-1.456;2023-05-02T03:35:32;14.80;;;6.00;;
16870;SDS011;8552;48.120;-1.456;2023-05-02T03:37:58;10.65;;;5.97;;
16870;SDS011;8552;48.120;-1.456;2023-05-02T03:40:23;11.02;;;5.95;;
16870;SDS011;8552;48.120;-1.456;2023-05-02T03:42:51;12.52;;;6.57;;
16870;SDS011;8552;48.120;-1.456;2023-05-02T03:45:16;11.20;;;5.82;;
16870;SDS011;8552;48.120;-1.456;2023-05-02T03:47:42;11.95;;;5.93;;
16870;SDS011;8552;48.120;-1.456;2023-05-02T03:50:08;13.32;;;5.80;;
16870;SDS011;8552;48.120;-1.456;2023-05-02T03:52:34;8.40;;;4.20;;
16870;SDS011;8552;48.120;-1.456;2023-05-02T03:55:00;9.80;;;4.82;;
16870;SDS011;8552;48.120;-1.456;2023-05-02T03:57:28;10.73;;;6.20;;
16870;SDS011;8552;48.120;-1.456;2023-05-02T03:59:54;9.32;;;5.82;;
16870;SDS011;8552;48.120;-1.456;2023-05-02T04:02:20;16.30;;;7.30;;
16870;SDS011;8552;48.120;-1.456;2023-05-02T04:04:45;10.93;;;6.15;;
16870;SDS011;8552;48.120;-1.456;2023-05-02T04:07:11;12.13;;;6.10;;
16870;SDS011;8552;48.120;-1.456;2023-05-02T04:09:42;10.15;;;5.85;;
16870;SDS011;8552;48.120;-1.456;2023-05-02T04:12:08;14.63;;;5.63;;
16870;SDS011;8552;48.120;-1.456;2023-05-02T04:14:33;10.38;;;6.25;;
16870;SDS011;8552;48.120;-1.456;2023-05-02T04:16:59;10.07;;;6.05;;
16870;SDS011;8552;48.120;-1.456;2023-05-02T04:19:25;13.48;;;6.40;;
16870;SDS011;8552;48.120;-1.456;2023-05-02T04:21:51;9.82;;;6.03;;
16870;SDS011;8552;48.120;-1.456;2023-05-02T04:24:17;12.68;;;6.30;;
16870;SDS011;8552;48.120;-1.456;2023-05-02T04:26:43;14.00;;;5.93;;
16870;SDS011;8552;48.120;-1.456;2023-05-02T04:29:08;12.20;;;6.43;;
16870;SDS011;8552;48.120;-1.456;2023-05-02T04:31:34;9.75;;;5.25;;
16870;SDS011;8552;48.120;-1.456;2023-05-02T04:34:00;12.18;;;5.40;;
16870;SDS011;8552;48.120;-1.456;2023-05-02T04:36:26;13.90;;;6.10;;
16870;SDS011;8552;48.120;-1.456;2023-05-02T04:38:52;12.75;;;5.82;;
16870;SDS011;8552;48.120;-1.456;2023-05-02T04:41:18;11.32;;;5.82;;
16870;SDS011;8552;48.120;-1.456;2023-05-02T04:43:45;10.48;;;6.93;;
16870;SDS011;8552;48.120;-1.456;2023-05-02T04:46:11;12.60;;;6.80;;
16870;SDS011;8552;48.120;-1.456;2023-05-02T04:48:36;16.08;;;7.13;;
16870;SDS011;8552;48.120;-1.456;2023-05-02T04:51:06;12.52;;;6.38;;
16870;SDS011;8552;48.120;-1.456;2023-05-02T04:53:34;11.48;;;6.82;;
16870;SDS011;8552;48.120;-1.456;2023-05-02T04:56:01;13.13;;;6.32;;
16870;SDS011;8552;48.120;-1.456;2023-05-02T04:58:26;11.30;;;7.00;;
16870;SDS011;8552;48.120;-1.456;2023-05-02T05:00:52;17.52;;;6.78;;
16870;SDS011;8552;48.120;-1.456;2023-05-02T05:03:18;10.57;;;6.63;;
16870;SDS011;8552;48.120;-1.456;2023-05-02T05:05:44;14.00;;;7.70;;
16870;SDS011;8552;48.120;-1.456;2023-05-02T05:08:10;11.40;;;6.93;;
16870;SDS011;8552;48.120;-1.456;2023-05-02T05:10:36;12.45;;;6.45;;
16870;SDS011;8552;48.120;-1.456;2023-05-02T05:13:02;20.58;;;7.63;;
16870;SDS011;8552;48.120;-1.456;2023-05-02T05:15:28;12.07;;;6.75;;
16870;SDS011;8552;48.120;-1.456;2023-05-02T05:17:54;9.20;;;6.30;;
16870;SDS011;8552;48.120;-1.456;2023-05-02T05:20:19;11.30;;;6.65;;
16870;SDS011;8552;48.120;-1.456;2023-05-02T05:22:45;13.77;;;6.60;;
16870;SDS011;8552;48.120;-1.456;2023-05-02T05:25:11;10.25;;;6.10;;
16870;SDS011;8552;48.120;-1.456;2023-05-02T05:27:36;12.32;;;7.72;;
16870;SDS011;8552;48.120;-1.456;2023-05-02T05:30:05;11.18;;;7.10;;
16870;SDS011;8552;48.120;-1.456;2023-05-02T05:32:32;13.05;;;6.65;;
16870;SDS011;8552;48.120;-1.456;2023-05-02T05:34:58;11.60;;;6.63;;
16870;SDS011;8552;48.120;-1.456;2023-05-02T05:37:24;10.43;;;6.55;;
16870;SDS011;8552;48.120;-1.456;2023-05-02T05:39:49;10.80;;;7.25;;
16870;SDS011;8552;48.120;-1.456;2023-05-02T05:42:15;12.75;;;6.40;;
16870;SDS011;8552;48.120;-1.456;2023-05-02T05:44:41;12.85;;;7.25;;
16870;SDS011;8552;48.120;-1.456;2023-05-02T05:47:07;12.82;;;6.85;;
16870;SDS011;8552;48.120;-1.456;2023-05-02T05:49:32;13.27;;;7.28;;
16870;SDS011;8552;48.120;-1.456;2023-05-02T05:52:00;12.52;;;7.03;;
16870;SDS011;8552;48.120;-1.456;2023-05-02T05:54:26;13.73;;;6.55;;
16870;SDS011;8552;48.120;-1.456;2023-05-02T05:56:52;13.63;;;6.80;;
16870;SDS011;8552;48.120;-1.456;2023-05-02T05:59:18;12.23;;;6.80;;
16870;SDS011;8552;48.120;-1.456;2023-05-02T06:01:44;13.10;;;7.22;;
16870;SDS011;8552;48.120;-1.456;2023-05-02T06:04:10;12.75;;;6.88;;
16870;SDS011;8552;48.120;-1.456;2023-05-02T06:06:35;10.82;;;6.03;;
16870;SDS011;8552;48.120;-1.456;2023-05-02T06:09:01;9.70;;;5.88;;
16870;SDS011;8552;48.120;-1.456;2023-05-02T06:11:28;9.30;;;5.50;;
16870;SDS011;8552;48.120;-1.456;2023-05-02T06:13:53;12.00;;;7.47;;
16870;SDS011;8552;48.120;-1.456;2023-05-02T06:16:19;10.82;;;6.90;;
16870;SDS011;8552;48.120;-1.456;2023-05-02T06:18:45;11.90;;;6.88;;
16870;SDS011;8552;48.120;-1.456;2023-05-02T06:21:11;9.07;;;5.85;;
16870;SDS011;8552;48.120;-1.456;2023-05-02T06:23:37;11.82;;;6.00;;
16870;SDS011;8552;48.120;-1.456;2023-05-02T06:26:03;11.45;;;6.93;;
16870;SDS011;8552;48.120;-1.456;2023-05-02T06:28:30;12.85;;;6.88;;
16870;SDS011;8552;48.120;-1.456;2023-05-02T06:30:59;11.27;;;7.00;;
16870;SDS011;8552;48.120;-1.456;2023-05-02T06:33:27;15.55;;;7.28;;
16870;SDS011;8552;48.120;-1.456;2023-05-02T06:35:53;13.73;;;7.15;;
16870;SDS011;8552;48.120;-1.456;2023-05-02T06:38:19;13.65;;;6.88;;
16870;SDS011;8552;48.120;-1.456;2023-05-02T06:40:45;12.60;;;7.03;;
16870;SDS011;8552;48.120;-1.456;2023-05-02T06:43:11;13.73;;;8.13;;
16870;SDS011;8552;48.120;-1.456;2023-05-02T06:45:37;12.93;;;7.45;;
16870;SDS011;8552;48.120;-1.456;2023-05-02T06:48:04;15.05;;;7.70;;
16870;SDS011;8552;48.120;-1.456;2023-05-02T06:50:30;13.88;;;8.13;;
16870;SDS011;8552;48.120;-1.456;2023-05-02T06:52:56;13.07;;;7.47;;
16870;SDS011;8552;48.120;-1.456;2023-05-02T06:55:22;11.38;;;7.50;;
16870;SDS011;8552;48.120;-1.456;2023-05-02T06:57:47;12.40;;;7.32;;
16870;SDS011;8552;48.120;-1.456;2023-05-02T07:00:17;13.80;;;7.80;;
16870;SDS011;8552;48.120;-1.456;2023-05-02T07:02:47;13.15;;;7.53;;
16870;SDS011;8552;48.120;-1.456;2023-05-02T07:05:13;15.60;;;7.70;;
16870;SDS011;8552;48.120;-1.456;2023-05-02T07:07:40;13.05;;;7.38;;
16870;SDS011;8552;48.120;-1.456;2023-05-02T07:10:10;12.10;;;6.32;;
16870;SDS011;8552;48.120;-1.456;2023-05-02T07:12:36;9.85;;;6.75;;
16870;SDS011;8552;48.120;-1.456;2023-05-02T07:15:04;12.13;;;7.05;;
16870;SDS011;8552;48.120;-1.456;2023-05-02T07:17:43;11.05;;;7.05;;
16870;SDS011;8552;48.120;-1.456;2023-05-02T07:20:17;13.07;;;7.80;;
16870;SDS011;8552;48.120;-1.456;2023-05-02T07:22:48;18.52;;;7.55;;
16870;SDS011;8552;48.120;-1.456;2023-05-02T07:25:19;10.07;;;7.32;;
16870;SDS011;8552;48.120;-1.456;2023-05-02T07:27:50;12.57;;;6.95;;
16870;SDS011;8552;48.120;-1.456;2023-05-02T07:30:19;16.15;;;7.47;;
16870;SDS011;8552;48.120;-1.456;2023-05-02T07:32:54;13.73;;;7.30;;
16870;SDS011;8552;48.120;-1.456;2023-05-02T07:35:21;12.82;;;7.10;;
16870;SDS011;8552;48.120;-1.456;2023-05-02T07:38:01;10.65;;;6.93;;
16870;SDS011;8552;48.120;-1.456;2023-05-02T07:40:29;9.10;;;6.90;;
16870;SDS011;8552;48.120;-1.456;2023-05-02T07:42:57;9.63;;;6.40;;
16870;SDS011;8552;48.120;-1.456;2023-05-02T07:45:26;8.40;;;6.53;;
16870;SDS011;8552;48.120;-1.456;2023-05-02T07:47:59;9.88;;;6.03;;
16870;SDS011;8552;48.120;-1.456;2023-05-02T07:50:29;11.70;;;6.25;;
16870;SDS011;8552;48.120;-1.456;2023-05-02T07:52:59;9.90;;;6.22;;
16870;SDS011;8552;48.120;-1.456;2023-05-02T07:55:29;7.60;;;5.97;;
16870;SDS011;8552;48.120;-1.456;2023-05-02T08:00:39;9.88;;;6.63;;
16870;SDS011;8552;48.120;-1.456;2023-05-02T08:03:09;9.15;;;6.10;;
16870;SDS011;8552;48.120;-1.456;2023-05-02T08:05:40;9.55;;;6.93;;
16870;SDS011;8552;48.120;-1.456;2023-05-02T08:08:19;8.52;;;5.43;;
16870;SDS011;8552;48.120;-1.456;2023-05-02T08:10:50;10.00;;;6.25;;
16870;SDS011;8552;48.120;-1.456;2023-05-02T08:13:21;7.97;;;6.07;;
16870;SDS011;8552;48.120;-1.456;2023-05-02T08:15:58;9.75;;;6.13;;
16870;SDS011;8552;48.120;-1.456;2023-05-02T08:18:28;9.18;;;6.05;;
16870;SDS011;8552;48.120;-1.456;2023-05-02T08:20:58;11.52;;;6.28;;
16870;SDS011;8552;48.120;-1.456;2023-05-02T08:23:26;8.05;;;6.28;;
16870;SDS011;8552;48.120;-1.456;2023-05-02T08:25:56;8.02;;;5.90;;
16870;SDS011;8552;48.120;-1.456;2023-05-02T08:28:29;7.60;;;5.57;;
16870;SDS011;8552;48.120;-1.456;2023-05-02T08:30:59;7.43;;;4.82;;
16870;SDS011;8552;48.120;-1.456;2023-05-02T08:33:29;6.70;;;5.22;;
16870;SDS011;8552;48.120;-1.456;2023-05-02T08:35:57;6.90;;;5.63;;
16870;SDS011;8552;48.120;-1.456;2023-05-02T08:38:27;7.90;;;5.05;;
16870;SDS011;8552;48.120;-1.456;2023-05-02T08:40:59;7.55;;;5.68;;
16870;SDS011;8552;48.120;-1.456;2023-05-02T08:43:32;7.28;;;5.75;;
16870;SDS011;8552;48.120;-1.456;2023-05-02T08:46:09;7.55;;;5.45;;
16870;SDS011;8552;48.120;-1.456;2023-05-02T08:48:41;11.18;;;6.68;;
16870;SDS011;8552;48.120;-1.456;2023-05-02T08:51:17;9.10;;;5.10;;
16870;SDS011;8552;48.120;-1.456;2023-05-02T08:53:49;7.28;;;5.60;;
16870;SDS011;8552;48.120;-1.456;2023-05-02T08:56:21;8.02;;;6.15;;
16870;SDS011;8552;48.120;-1.456;2023-05-02T08:58:55;6.75;;;5.15;;
16870;SDS011;8552;48.120;-1.456;2023-05-02T09:01:23;8.98;;;5.50;;
16870;SDS011;8552;48.120;-1.456;2023-05-02T09:03:55;7.25;;;6.22;;
16870;SDS011;8552;48.120;-1.456;2023-05-02T09:06:25;8.27;;;6.55;;
16870;SDS011;8552;48.120;-1.456;2023-05-02T09:08:54;10.00;;;6.47;;
16870;SDS011;8552;48.120;-1.456;2023-05-02T09:11:28;8.45;;;6.07;;
16870;SDS011;8552;48.120;-1.456;2023-05-02T09:13:57;7.95;;;5.50;;
16870;SDS011;8552;48.120;-1.456;2023-05-02T09:16:30;8.38;;;5.38;;
16870;SDS011;8552;48.120;-1.456;2023-05-02T09:19:10;8.20;;;5.60;;
16870;SDS011;8552;48.120;-1.456;2023-05-02T09:22:01;7.78;;;5.35;;
16870;SDS011;8552;48.120;-1.456;2023-05-02T09:24:31;6.60;;;5.13;;
16870;SDS011;8552;48.120;-1.456;2023-05-02T09:27:07;6.78;;;5.38;;
16870;SDS011;8552;48.120;-1.456;2023-05-02T09:29:38;10.93;;;6.15;;
16870;SDS011;8552;48.120;-1.456;2023-05-02T09:32:11;6.07;;;4.88;;
16870;SDS011;8552;48.120;-1.456;2023-05-02T09:34:42;8.40;;;4.90;;
16870;SDS011;8552;48.120;-1.456;2023-05-02T09:37:34;5.05;;;3.88;;
16870;SDS011;8552;48.120;-1.456;2023-05-02T09:40:05;5.20;;;4.45;;
16870;SDS011;8552;48.120;-1.456;2023-05-02T09:42:35;4.97;;;3.40;;
16870;SDS011;8552;48.120;-1.456;2023-05-02T09:45:05;6.03;;;3.90;;
16870;SDS011;8552;48.120;-1.456;2023-05-02T09:47:38;5.45;;;3.47;;
16870;SDS011;8552;48.120;-1.456;2023-05-02T09:50:10;2.97;;;2.60;;
16870;SDS011;8552;48.120;-1.456;2023-05-02T09:53:01;3.97;;;3.10;;
16870;SDS011;8552;48.120;-1.456;2023-05-02T09:55:31;3.10;;;2.80;;
16870;SDS011;8552;48.120;-1.456;2023-05-02T09:58:05;3.30;;;3.00;;
16870;SDS011;8552;48.120;-1.456;2023-05-02T10:00:49;4.78;;;3.15;;
16870;SDS011;8552;48.120;-1.456;2023-05-02T10:03:20;3.20;;;2.90;;
16870;SDS011;8552;48.120;-1.456;2023-05-02T10:05:53;2.38;;;2.08;;
16870;SDS011;8552;48.120;-1.456;2023-05-02T10:08:27;2.53;;;2.10;;
16870;SDS011;8552;48.120;-1.456;2023-05-02T10:10:59;2.47;;;1.80;;
16870;SDS011;8552;48.120;-1.456;2023-05-02T10:13:37;1.80;;;1.70;;
16870;SDS011;8552;48.120;-1.456;2023-05-02T10:16:12;2.05;;;1.73;;
16870;SDS011;8552;48.120;-1.456;2023-05-02T10:18:57;2.78;;;1.83;;
16870;SDS011;8552;48.120;-1.456;2023-05-02T10:21:35;3.45;;;2.58;;
16870;SDS011;8552;48.120;-1.456;2023-05-02T10:24:06;3.45;;;2.00;;
16870;SDS011;8552;48.120;-1.456;2023-05-02T10:26:36;1.83;;;1.73;;
16870;SDS011;8552;48.120;-1.456;2023-05-02T10:29:06;3.08;;;2.28;;
16870;SDS011;8552;48.120;-1.456;2023-05-02T10:31:38;3.90;;;2.22;;
16870;SDS011;8552;48.120;-1.456;2023-05-02T10:34:10;2.45;;;2.10;;
16870;SDS011;8552;48.120;-1.456;2023-05-02T10:36:45;2.70;;;2.50;;
16870;SDS011;8552;48.120;-1.456;2023-05-02T10:39:16;4.22;;;2.05;;
16870;SDS011;8552;48.120;-1.456;2023-05-02T10:41:50;4.47;;;2.33;;
16870;SDS011;8552;48.120;-1.456;2023-05-02T10:44:32;2.22;;;2.03;;
16870;SDS011;8552;48.120;-1.456;2023-05-02T10:47:18;1.77;;;1.67;;
16870;SDS011;8552;48.120;-1.456;2023-05-02T10:49:56;3.45;;;2.03;;
16870;SDS011;8552;48.120;-1.456;2023-05-02T10:52:28;2.20;;;1.75;;
16870;SDS011;8552;48.120;-1.456;2023-05-02T10:55:13;2.10;;;1.83;;
16870;SDS011;8552;48.120;-1.456;2023-05-02T11:00:30;5.45;;;1.60;;
16870;SDS011;8552;48.120;-1.456;2023-05-02T11:03:06;3.20;;;2.03;;
16870;SDS011;8552;48.120;-1.456;2023-05-02T11:06:05;3.85;;;1.90;;
16870;SDS011;8552;48.120;-1.456;2023-05-02T11:08:35;2.75;;;2.08;;
16870;SDS011;8552;48.120;-1.456;2023-05-02T11:14:08;1.40;;;1.25;;
16870;SDS011;8552;48.120;-1.456;2023-05-02T11:24:52;1.80;;;1.70;;
16870;SDS011;8552;48.120;-1.456;2023-05-02T11:30:04;2.45;;;1.40;;
16870;SDS011;8552;48.120;-1.456;2023-05-02T11:35:16;2.10;;;1.90;;
16870;SDS011;8552;48.120;-1.456;2023-05-02T11:37:53;2.22;;;1.50;;
16870;SDS011;8552;48.120;-1.456;2023-05-02T11:40:35;1.90;;;1.73;;
16870;SDS011;8552;48.120;-1.456;2023-05-02T11:43:15;2.10;;;1.88;;
16870;SDS011;8552;48.120;-1.456;2023-05-02T11:45:53;1.70;;;1.60;;
16870;SDS011;8552;48.120;-1.456;2023-05-02T11:48:27;1.90;;;1.80;;
16870;SDS011;8552;48.120;-1.456;2023-05-02T11:51:03;2.05;;;1.48;;
16870;SDS011;8552;48.120;-1.456;2023-05-02T11:53:33;2.50;;;1.70;;
16870;SDS011;8552;48.120;-1.456;2023-05-02T11:56:12;1.98;;;1.55;;
16870;SDS011;8552;48.120;-1.456;2023-05-02T11:58:42;2.10;;;1.70;;
16870;SDS011;8552;48.120;-1.456;2023-05-02T12:01:13;2.17;;;1.50;;
16870;SDS011;8552;48.120;-1.456;2023-05-02T12:03:42;2.35;;;1.50;;
16870;SDS011;8552;48.120;-1.456;2023-05-02T12:06:15;1.58;;;1.20;;
16870;SDS011;8552;48.120;-1.456;2023-05-02T12:08:44;3.70;;;1.33;;
16870;SDS011;8552;48.120;-1.456;2023-05-02T12:11:15;1.40;;;1.30;;
16870;SDS011;8552;48.120;-1.456;2023-05-02T12:13:51;2.42;;;1.30;;
16870;SDS011;8552;48.120;-1.456;2023-05-02T12:16:21;2.00;;;0.95;;
16870;SDS011;8552;48.120;-1.456;2023-05-02T12:18:51;1.48;;;1.05;;
16870;SDS011;8552;48.120;-1.456;2023-05-02T12:21:23;2.97;;;1.60;;
16870;SDS011;8552;48.120;-1.456;2023-05-02T12:23:59;3.83;;;1.58;;
16870;SDS011;8552;48.120;-1.456;2023-05-02T12:26:29;3.00;;;1.40;;
16870;SDS011;8552;48.120;-1.456;2023-05-02T12:29:02;2.58;;;1.42;;
16870;SDS011;8552;48.120;-1.456;2023-05-02T12:31:48;2.08;;;1.30;;
16870;SDS011;8552;48.120;-1.456;2023-05-02T12:34:34;3.13;;;1.48;;
16870;SDS011;8552;48.120;-1.456;2023-05-02T12:37:05;3.80;;;1.50;;
16870;SDS011;8552;48.120;-1.456;2023-05-02T12:42:10;1.85;;;1.23;;
16870;SDS011;8552;48.120;-1.456;2023-05-02T12:44:45;3.13;;;1.30;;
16870;SDS011;8552;48.120;-1.456;2023-05-02T12:47:18;2.58;;;1.42;;
16870;SDS011;8552;48.120;-1.456;2023-05-02T12:49:52;1.15;;;0.90;;
16870;SDS011;8552;48.120;-1.456;2023-05-02T12:55:19;2.00;;;1.23;;
16870;SDS011;8552;48.120;-1.456;2023-05-02T12:58:01;1.92;;;1.38;;
16870;SDS011;8552;48.120;-1.456;2023-05-02T13:00:39;1.70;;;1.60;;
16870;SDS011;8552;48.120;-1.456;2023-05-02T13:03:13;1.92;;;1.50;;
16870;SDS011;8552;48.120;-1.456;2023-05-02T13:05:43;1.60;;;1.38;;
16870;SDS011;8552;48.120;-1.456;2023-05-02T13:08:14;2.60;;;1.52;;
16870;SDS011;8552;48.120;-1.456;2023-05-02T13:10:44;2.05;;;1.60;;
16870;SDS011;8552;48.120;-1.456;2023-05-02T13:13:17;2.05;;;1.20;;
16870;SDS011;8552;48.120;-1.456;2023-05-02T13:15:50;1.65;;;1.52;;
16870;SDS011;8552;48.120;-1.456;2023-05-02T13:18:20;2.72;;;1.60;;
16870;SDS011;8552;48.120;-1.456;2023-05-02T13:20:50;2.35;;;1.77;;
16870;SDS011;8552;48.120;-1.456;2023-05-02T13:23:20;1.88;;;1.67;;
16870;SDS011;8552;48.120;-1.456;2023-05-02T13:25:51;2.30;;;2.05;;
16870;SDS011;8552;48.120;-1.456;2023-05-02T13:28:21;2.72;;;1.60;;
16870;SDS011;8552;48.120;-1.456;2023-05-02T13:30:58;4.10;;;2.33;;
16870;SDS011;8552;48.120;-1.456;2023-05-02T13:33:28;2.30;;;1.35;;
16870;SDS011;8552;48.120;-1.456;2023-05-02T13:36:02;2.38;;;1.50;;
16870;SDS011;8552;48.120;-1.456;2023-05-02T13:38:43;4.32;;;1.63;;
16870;SDS011;8552;48.120;-1.456;2023-05-02T13:41:20;1.55;;;1.25;;
16870;SDS011;8552;48.120;-1.456;2023-05-02T13:43:53;1.88;;;1.17;;
16870;SDS011;8552;48.120;-1.456;2023-05-02T13:46:28;2.45;;;1.35;;
16870;SDS011;8552;48.120;-1.456;2023-05-02T13:49:06;3.03;;;1.30;;
16870;SDS011;8552;48.120;-1.456;2023-05-02T13:51:36;2.83;;;1.60;;
16870;SDS011;8552;48.120;-1.456;2023-05-02T13:54:09;2.25;;;1.27;;
16870;SDS011;8552;48.120;-1.456;2023-05-02T13:56:41;2.67;;;1.50;;
16870;SDS011;8552;48.120;-1.456;2023-05-02T13:59:11;1.88;;;1.30;;
16870;SDS011;8552;48.120;-1.456;2023-05-02T14:01:41;2.55;;;1.15;;
16870;SDS011;8552;48.120;-1.456;2023-05-02T14:04:10;1.90;;;1.10;;
16870;SDS011;8552;48.120;-1.456;2023-05-02T14:06:43;2.75;;;1.20;;
16870;SDS011;8552;48.120;-1.456;2023-05-02T14:09:19;1.48;;;1.38;;
16870;SDS011;8552;48.120;-1.456;2023-05-02T14:11:49;1.27;;;1.20;;
16870;SDS011;8552;48.120;-1.456;2023-05-02T14:14:20;2.45;;;1.52;;
16870;SDS011;8552;48.120;-1.456;2023-05-02T14:16:55;1.50;;;1.40;;
16870;SDS011;8552;48.120;-1.456;2023-05-02T14:19:27;1.33;;;1.23;;
16870;SDS011;8552;48.120;-1.456;2023-05-02T14:21:59;1.08;;;0.98;;
16870;SDS011;8552;48.120;-1.456;2023-05-02T14:24:34;2.38;;;0.90;;
16870;SDS011;8552;48.120;-1.456;2023-05-02T14:27:05;3.10;;;1.25;;
16870;SDS011;8552;48.120;-1.456;2023-05-02T14:29:44;1.65;;;1.23;;
16870;SDS011;8552;48.120;-1.456;2023-05-02T14:32:14;2.45;;;1.05;;
16870;SDS011;8552;48.120;-1.456;2023-05-02T14:34:49;1.33;;;1.15;;
16870;SDS011;8552;48.120;-1.456;2023-05-02T14:37:19;1.25;;;1.15;;
16870;SDS011;8552;48.120;-1.456;2023-05-02T14:39:49;0.98;;;0.85;;
16870;SDS011;8552;48.120;-1.456;2023-05-02T14:42:21;1.63;;;0.82;;
16870;SDS011;8552;48.120;-1.456;2023-05-02T14:44:51;1.00;;;0.80;;
16870;SDS011;8552;48.120;-1.456;2023-05-02T14:47:22;2.10;;;0.90;;
16870;SDS011;8552;48.120;-1.456;2023-05-02T14:49:58;0.93;;;0.93;;
16870;SDS011;8552;48.120;-1.456;2023-05-02T14:52:31;1.63;;;0.90;;
16870;SDS011;8552;48.120;-1.456;2023-05-02T14:55:08;1.65;;;1.05;;
16870;SDS011;8552;48.120;-1.456;2023-05-02T14:57:38;1.80;;;0.88;;
16870;SDS011;8552;48.120;-1.456;2023-05-02T15:00:09;1.90;;;0.77;;
16870;SDS011;8552;48.120;-1.456;2023-05-02T15:02:43;0.90;;;0.90;;
16870;SDS011;8552;48.120;-1.456;2023-05-02T15:05:13;1.10;;;0.70;;
16870;SDS011;8552;48.120;-1.456;2023-05-02T15:07:43;0.98;;;0.88;;
16870;SDS011;8552;48.120;-1.456;2023-05-02T15:10:13;2.25;;;1.08;;
16870;SDS011;8552;48.120;-1.456;2023-05-02T15:12:41;1.45;;;1.08;;
16870;SDS011;8552;48.120;-1.456;2023-05-02T15:15:19;1.52;;;0.90;;
16870;SDS011;8552;48.120;-1.456;2023-05-02T15:17:50;3.33;;;1.60;;
16870;SDS011;8552;48.120;-1.456;2023-05-02T15:20:21;2.38;;;1.02;;
16870;SDS011;8552;48.120;-1.456;2023-05-02T15:22:57;2.53;;;1.27;;
16870;SDS011;8552;48.120;-1.456;2023-05-02T15:25:28;1.52;;;1.23;;
16870;SDS011;8552;48.120;-1.456;2023-05-02T15:28:03;1.60;;;1.05;;
16870;SDS011;8552;48.120;-1.456;2023-05-02T15:30:35;2.58;;;1.05;;
16870;SDS011;8552;48.120;-1.456;2023-05-02T15:33:05;1.15;;;1.05;;
16870;SDS011;8552;48.120;-1.456;2023-05-02T15:35:35;3.13;;;1.30;;
16870;SDS011;8552;48.120;-1.456;2023-05-02T15:38:05;1.67;;;0.88;;
16870;SDS011;8552;48.120;-1.456;2023-05-02T15:40:36;0.70;;;0.70;;
16870;SDS011;8552;48.120;-1.456;2023-05-02T15:43:06;1.90;;;0.90;;